Joice, IA (50446)

9:01 PM CST on February 10, 2016 (GMT -0600)
3 miles north of Fertile, IA | | Change Station
CLOSE
Current Station
Personal Weather Station
Location: Hanlontown, IA
Elevation: 1240 ft
Nearby Weather Stations

Elev 1240 ft 43.31 °N, 93.42 °W | Updated 4 seconds ago

Overcast
Overcast
6.9 °F
Feels Like 7 °F
N
0.0
Wind Variable Wind from NNW
Gusts 0.0 mph

Today
High -- | Low -- °F
--% Chance of Precip.
Yesterday
High -- | Low -- °F
Precip. -- in
Pressure 30.19 in
Visibility 10.0 miles
Clouds Scattered Clouds 4800 ft
Overcast 8000 ft
Windchill 7 °F
Dew Point 2 °F
Humidity 81%
Rainfall 0.00 in
Snow Depth Not available.
7:19 AM 5:37 PM
Waxing Crescent, 9% visible
METAR KFXY 110235Z AUTO 00000KT 10SM SCT048 OVC080 M14/M17 A3019 RMK AO2
Pressure 30.19 in
Visibility 10.0 miles
Clouds Scattered Clouds 4800 ft
Overcast 8000 ft
Windchill 7 °F
Dew Point 2 °F
Humidity 81%
Rainfall 0.00 in
Snow Depth Not available.
7:19 AM 5:37 PM
Waxing Crescent, 9% visible
METAR KFXY 110235Z AUTO 00000KT 10SM SCT048 OVC080 M14/M17 A3019 RMK AO2

10-Day Weather Forecast

Almanac

Astronomy

Feb. 10, 2016 Rise Set
Actual Time
Civil Twilight
Nautical Twilight
Astronomical Twilight
Moon
Length of Visible Light
Length of Day
Tomorrow will be .
, % of the Moon is Illuminated

Today's Extremes

State Highs State Lows

Community

WunderPhotos

Upload Photos

1,891,994 photos uploaded!

WunderBlog® & News

Nearby

Air Quality

  Air Quality AQ Index Pollutant
Not available.

Snow Depth

Station Depth Elevation

Earthquake Activity

City Distance Mag. Time & Date
Minimum magnitude displayed is 2.5.

Coastal Water Temperatures

Place Temperature

Stations

Nearby Weather Stations

Station Location Temp. Windchill Dew Point Humidity Wind Precip. Elev Updated Type
                   

Watches & Warnings

There are currently no watches in effect.